HomeShort term forecast

Short term forecast

Graphical weather forecast for the next 48 hours for Montreal:

Short term forecast

This weather forecast is automatically refreshed every 3 hours.

Hourly Experimental Forecast for the next 48 hours ®

Overall summary: Partly cloudy throughout the day.

 Date & Hour   Temp   Feel   Baro   Hum   Speed & Bearing   Wind Gust   Precip.%   Precip.   Visibility   Cloud cover   Conditions 
 24/09/2021 - 17:00  19.5°C  19.5°C  1014.1 hPa  58%  20.0 km/h   33.8 km/h  0%  --  16.1km  28%  Clear 
 24/09/2021 - 18:00  18.1°C  18.1°C  1014.8 hPa  65%  17.3 km/h   32.2 km/h  0%  --  16.1km  29%  Clear 
 24/09/2021 - 19:00  17.0°C  17.0°C  1015.4 hPa  70%  13.6 km/h   24.6 km/h  0%  --  16.1km  31%  Clear 
 24/09/2021 - 20:00  16.6°C  16.6°C  1016.0 hPa  75%  12.8 km/h   29.1 km/h  0%  --  16.1km  28%  Clear 
 24/09/2021 - 21:00  16.1°C  16.1°C  1016.3 hPa  77%  12.2 km/h   26.9 km/h  0%  --  16.1km  28%  Clear 
 24/09/2021 - 22:00  15.7°C  15.7°C  1016.5 hPa  80%  11.4 km/h   26.5 km/h  0%  --  16.1km  27%  Clear 
 24/09/2021 - 23:00  15.5°C  15.5°C  1016.7 hPa  83%  10.6 km/h   24.1 km/h  0%  --  16.1km  38%  Partly Cloudy 
 25/09/2021 - 00:00  15.3°C  15.3°C  1016.8 hPa  85%  9.6 km/h   21.5 km/h  0%  --  16.1km  45%  Partly Cloudy 
 25/09/2021 - 01:00  15.1°C  15.1°C  1016.9 hPa  88%  8.6 km/h   15.0 km/h  0%  --  16.1km  51%  Partly Cloudy 
 25/09/2021 - 02:00  14.4°C  14.4°C  1017.2 hPa  89%  7.2 km/h   8.5 km/h  0%  --  16.1km  51%  Partly Cloudy 
 25/09/2021 - 03:00  14.2°C  14.2°C  1017.1 hPa  90%  5.7 km/h   6.2 km/h  0%  --  16.1km  60%  Mostly Cloudy 
 25/09/2021 - 04:00  13.9°C  13.9°C  1017.3 hPa  92%  5.5 km/h   8.6 km/h  0%  --  16.1km  57%  Partly Cloudy 
 25/09/2021 - 05:00  13.5°C  13.5°C  1017.2 hPa  93%  5.3 km/h   11.2 km/h  0%  --  16.1km  43%  Partly Cloudy 
 25/09/2021 - 06:00  12.3°C  12.3°C  1017.6 hPa  96%  4.5 km/h   8.9 km/h  0%  --  16.1km  31%  Clear 
 25/09/2021 - 07:00  12.0°C  12.0°C  1017.8 hPa  98%  4.1 km/h   8.3 km/h  0%  --  16.1km  29%  Clear 
 25/09/2021 - 08:00  12.6°C  12.6°C  1017.9 hPa  98%  3.2 km/h   4.3 km/h  0%  --  16.1km  32%  Partly Cloudy 
 25/09/2021 - 09:00  13.9°C  13.9°C  1017.9 hPa  92%  3.8 km/h   6.3 km/h  0%  --  16.1km  49%  Partly Cloudy 
 25/09/2021 - 10:00  15.6°C  15.6°C  1017.8 hPa  85%  4.8 km/h   9.0 km/h  0%  --  16.1km  49%  Partly Cloudy 
 25/09/2021 - 11:00  17.1°C  17.1°C  1017.4 hPa  78%  5.8 km/h   10.6 km/h  0%  --  16.1km  63%  Mostly Cloudy 
 25/09/2021 - 12:00  18.2°C  18.2°C  1016.8 hPa  72%  6.4 km/h   10.8 km/h  0%  --  16.1km  63%  Mostly Cloudy 
 25/09/2021 - 13:00  19.0°C  19.0°C  1016.1 hPa  66%  6.9 km/h   10.6 km/h  0%  --  16.1km  62%  Mostly Cloudy 
 25/09/2021 - 14:00  20.0°C  20.0°C  1015.2 hPa  62%  8.4 km/h   13.2 km/h  0%  --  16.1km  61%  Mostly Cloudy 
 25/09/2021 - 15:00  20.7°C  20.7°C  1014.5 hPa  58%  8.5 km/h   11.7 km/h  0%  --  16.1km  67%  Mostly Cloudy 
 25/09/2021 - 16:00  21.1°C  21.1°C  1013.8 hPa  57%  8.8 km/h   10.4 km/h  0%  --  16.1km  74%  Mostly Cloudy 
 25/09/2021 - 17:00  20.9°C  20.9°C  1013.1 hPa  58%  9.1 km/h   10.5 km/h  0%  --  16.1km  78%  Mostly Cloudy 
 25/09/2021 - 18:00  20.1°C  20.1°C  1012.7 hPa  61%  9.0 km/h   12.7 km/h  0%  --  16.1km  80%  Mostly Cloudy 
 25/09/2021 - 19:00  18.9°C  18.9°C  1012.5 hPa  66%  8.7 km/h   14.7 km/h  0%  --  16.1km  84%  Mostly Cloudy 
 25/09/2021 - 20:00  18.0°C  18.0°C  1012.2 hPa  71%  9.4 km/h   21.5 km/h  0%  --  16.1km  87%  Mostly Cloudy 
 25/09/2021 - 21:00  17.4°C  17.4°C  1011.9 hPa  75%  8.9 km/h   18.5 km/h  0%  --  16.1km  91%  Overcast 
 25/09/2021 - 22:00  17.0°C  17.0°C  1011.7 hPa  78%  8.2 km/h   12.3 km/h  0%  --  16.1km  96%  Overcast 
 25/09/2021 - 23:00  16.6°C  16.6°C  1011.4 hPa  81%  7.8 km/h   9.4 km/h  0%  --  16.1km  99%  Overcast 
 26/09/2021 - 00:00  16.2°C  16.2°C  1010.9 hPa  83%  7.5 km/h   10.5 km/h  0%  --  16.1km  100%  Overcast 
 26/09/2021 - 01:00  16.0°C  16.0°C  1010.6 hPa  85%  7.5 km/h   15.9 km/h  2%  0.01 mm/h  16.1km  100%  Overcast 
 26/09/2021 - 02:00  15.5°C  15.5°C  1010.3 hPa  86%  7.0 km/h   9.3 km/h  0%  --  16.1km  95%  Overcast 
 26/09/2021 - 03:00  15.3°C  15.3°C  1010.0 hPa  87%  7.9 km/h   11.9 km/h  0%  --  16.1km  93%  Overcast 
 26/09/2021 - 04:00  15.0°C  15.0°C  1010.0 hPa  88%  9.1 km/h   15.7 km/h  0%  --  16.1km  91%  Overcast 
 26/09/2021 - 05:00  14.5°C  14.5°C  1009.7 hPa  90%  10.4 km/h   19.7 km/h  0%  --  16.1km  88%  Overcast 
 26/09/2021 - 06:00  13.9°C  13.9°C  1010.4 hPa  92%  11.6 km/h   23.5 km/h  3%  0.01 mm/h  16.1km  84%  Mostly Cloudy 
 26/09/2021 - 07:00  13.6°C  13.6°C  1010.4 hPa  92%  12.7 km/h   26.6 km/h  10%  0.09 mm/h  16.1km  78%  Mostly Cloudy 
 26/09/2021 - 08:00  13.7°C  13.7°C  1010.3 hPa  93%  14.0 km/h   29.5 km/h  6%  0.04 mm/h  16.1km  68%  Mostly Cloudy 
 26/09/2021 - 09:00  14.4°C  14.4°C  1010.4 hPa  89%  15.5 km/h   30.6 km/h  6%  0.03 mm/h  16.1km  37%  Partly Cloudy 
 26/09/2021 - 10:00  15.6°C  15.6°C  1010.3 hPa  81%  16.8 km/h   30.8 km/h  5%  0.03 mm/h  16.1km  29%  Clear 
 26/09/2021 - 11:00  16.5°C  16.5°C  1010.0 hPa  73%  17.9 km/h   30.7 km/h  5%  0.03 mm/h  16.1km  22%  Clear 
 26/09/2021 - 12:00  17.3°C  17.3°C  1009.4 hPa  65%  18.9 km/h   30.7 km/h  4%  0.02 mm/h  16.1km  26%  Clear 
 26/09/2021 - 13:00  18.1°C  18.1°C  1008.5 hPa  58%  19.8 km/h   30.3 km/h  3%  0.01 mm/h  16.1km  34%  Partly Cloudy 
 26/09/2021 - 14:00  18.6°C  18.6°C  1007.8 hPa  54%  20.4 km/h   31.0 km/h  3%  0.02 mm/h  16.1km  38%  Partly Cloudy 
 26/09/2021 - 15:00  19.1°C  19.1°C  1007.3 hPa  51%  20.7 km/h   30.9 km/h  3%  0.02 mm/h  16.1km  35%  Partly Cloudy 
 26/09/2021 - 16:00  18.9°C  18.9°C  1006.9 hPa  52%  20.4 km/h   30.6 km/h  3%  0.02 mm/h  16.1km  30%  Clear 

 

Past weather and reports

Past weatherFind in this section the past weather conditions, weather archive, graphics, reports and statistics.

Current conditions

Current weather condition for MontrealAll you need to know about the current weather conditions for Montreal. Weather data is updated every 10 minutes.

Weather forecast

Current Montreal weatherSince 2004, celinium.com website has provided accurate weather forecast for Montreal's island.